sensor_id;sensor_type;location;lat;lon;timestamp;P1;durP1;ratioP1;P2;durP2;ratioP2
10410;SDS011;5251;52.112;8.606;2024-01-11T00:01:46;34.60;;;19.95;;
10410;SDS011;5251;52.112;8.606;2024-01-11T00:04:12;33.00;;;19.92;;
10410;SDS011;5251;52.112;8.606;2024-01-11T00:06:42;36.88;;;22.08;;
10410;SDS011;5251;52.112;8.606;2024-01-11T00:09:08;35.35;;;21.85;;
10410;SDS011;5251;52.112;8.606;2024-01-11T00:11:34;39.28;;;22.80;;
10410;SDS011;5251;52.112;8.606;2024-01-11T00:14:00;37.05;;;22.42;;
10410;SDS011;5251;52.112;8.606;2024-01-11T00:16:25;41.92;;;22.80;;
10410;SDS011;5251;52.112;8.606;2024-01-11T00:18:51;36.97;;;21.70;;
10410;SDS011;5251;52.112;8.606;2024-01-11T00:21:17;38.72;;;21.23;;
10410;SDS011;5251;52.112;8.606;2024-01-11T00:23:42;39.05;;;22.73;;
10410;SDS011;5251;52.112;8.606;2024-01-11T00:26:08;37.97;;;22.60;;
10410;SDS011;5251;52.112;8.606;2024-01-11T00:28:36;48.05;;;23.35;;
10410;SDS011;5251;52.112;8.606;2024-01-11T00:31:02;40.95;;;22.88;;
10410;SDS011;5251;52.112;8.606;2024-01-11T00:33:28;38.50;;;22.27;;
10410;SDS011;5251;52.112;8.606;2024-01-11T00:35:53;40.72;;;21.90;;
10410;SDS011;5251;52.112;8.606;2024-01-11T00:38:19;37.85;;;21.30;;
10410;SDS011;5251;52.112;8.606;2024-01-11T00:40:45;33.67;;;19.83;;
10410;SDS011;5251;52.112;8.606;2024-01-11T00:43:11;36.75;;;22.17;;
10410;SDS011;5251;52.112;8.606;2024-01-11T00:45:36;40.55;;;22.13;;
10410;SDS011;5251;52.112;8.606;2024-01-11T00:48:03;40.28;;;22.45;;
10410;SDS011;5251;52.112;8.606;2024-01-11T00:50:29;38.53;;;22.48;;
10410;SDS011;5251;52.112;8.606;2024-01-11T00:52:55;36.88;;;22.08;;
10410;SDS011;5251;52.112;8.606;2024-01-11T00:55:20;41.15;;;22.88;;
10410;SDS011;5251;52.112;8.606;2024-01-11T00:57:46;39.35;;;23.13;;
10410;SDS011;5251;52.112;8.606;2024-01-11T01:00:12;40.30;;;22.55;;
10410;SDS011;5251;52.112;8.606;2024-01-11T01:02:41;37.75;;;21.85;;
10410;SDS011;5251;52.112;8.606;2024-01-11T01:05:07;38.45;;;21.90;;
10410;SDS011;5251;52.112;8.606;2024-01-11T01:07:33;40.70;;;21.90;;
10410;SDS011;5251;52.112;8.606;2024-01-11T01:09:59;37.13;;;20.38;;
10410;SDS011;5251;52.112;8.606;2024-01-11T01:12:24;37.38;;;21.70;;
10410;SDS011;5251;52.112;8.606;2024-01-11T01:14:50;36.00;;;21.25;;
10410;SDS011;5251;52.112;8.606;2024-01-11T01:17:16;33.67;;;20.20;;
10410;SDS011;5251;52.112;8.606;2024-01-11T01:19:43;35.97;;;21.63;;
10410;SDS011;5251;52.112;8.606;2024-01-11T01:22:09;34.95;;;20.70;;
10410;SDS011;5251;52.112;8.606;2024-01-11T01:24:35;37.17;;;22.40;;
10410;SDS011;5251;52.112;8.606;2024-01-11T01:27:01;35.22;;;20.88;;
10410;SDS011;5251;52.112;8.606;2024-01-11T01:29:26;35.55;;;21.33;;
10410;SDS011;5251;52.112;8.606;2024-01-11T01:31:52;34.30;;;21.20;;
10410;SDS011;5251;52.112;8.606;2024-01-11T01:34:18;37.23;;;21.40;;
10410;SDS011;5251;52.112;8.606;2024-01-11T01:36:44;38.35;;;21.05;;
10410;SDS011;5251;52.112;8.606;2024-01-11T01:39:11;33.67;;;20.80;;
10410;SDS011;5251;52.112;8.606;2024-01-11T01:41:37;37.08;;;21.60;;
10410;SDS011;5251;52.112;8.606;2024-01-11T01:44:02;35.80;;;20.95;;
10410;SDS011;5251;52.112;8.606;2024-01-11T01:46:28;39.15;;;21.73;;
10410;SDS011;5251;52.112;8.606;2024-01-11T01:48:55;36.05;;;20.98;;
10410;SDS011;5251;52.112;8.606;2024-01-11T01:51:24;38.65;;;21.33;;
10410;SDS011;5251;52.112;8.606;2024-01-11T01:53:52;35.28;;;20.88;;
10410;SDS011;5251;52.112;8.606;2024-01-11T01:56:19;36.78;;;21.73;;
10410;SDS011;5251;52.112;8.606;2024-01-11T01:58:46;38.75;;;22.70;;
10410;SDS011;5251;52.112;8.606;2024-01-11T02:01:12;46.47;;;24.30;;
10410;SDS011;5251;52.112;8.606;2024-01-11T02:03:39;44.15;;;22.88;;
10410;SDS011;5251;52.112;8.606;2024-01-11T02:06:05;40.47;;;22.35;;
10410;SDS011;5251;52.112;8.606;2024-01-11T02:08:32;38.42;;;22.17;;
10410;SDS011;5251;52.112;8.606;2024-01-11T02:10:59;35.83;;;20.90;;
10410;SDS011;5251;52.112;8.606;2024-01-11T02:13:26;33.35;;;19.98;;
10410;SDS011;5251;52.112;8.606;2024-01-11T02:15:51;37.78;;;21.80;;
10410;SDS011;5251;52.112;8.606;2024-01-11T02:18:17;36.83;;;20.92;;
10410;SDS011;5251;52.112;8.606;2024-01-11T02:20:43;35.83;;;19.67;;
10410;SDS011;5251;52.112;8.606;2024-01-11T02:23:11;33.28;;;20.48;;
10410;SDS011;5251;52.112;8.606;2024-01-11T02:25:41;37.63;;;20.65;;
10410;SDS011;5251;52.112;8.606;2024-01-11T02:28:07;41.17;;;22.52;;
10410;SDS011;5251;52.112;8.606;2024-01-11T02:30:33;36.60;;;21.10;;
10410;SDS011;5251;52.112;8.606;2024-01-11T02:32:59;34.20;;;19.92;;
10410;SDS011;5251;52.112;8.606;2024-01-11T02:35:26;37.10;;;20.58;;
10410;SDS011;5251;52.112;8.606;2024-01-11T02:37:53;34.42;;;20.02;;
10410;SDS011;5251;52.112;8.606;2024-01-11T02:40:19;35.88;;;20.25;;
10410;SDS011;5251;52.112;8.606;2024-01-11T02:42:45;38.30;;;21.75;;
10410;SDS011;5251;52.112;8.606;2024-01-11T02:45:11;38.42;;;21.80;;
10410;SDS011;5251;52.112;8.606;2024-01-11T02:47:37;40.90;;;21.90;;
10410;SDS011;5251;52.112;8.606;2024-01-11T02:50:03;40.60;;;22.83;;
10410;SDS011;5251;52.112;8.606;2024-01-11T02:52:30;40.83;;;22.40;;
10410;SDS011;5251;52.112;8.606;2024-01-11T02:54:57;37.90;;;22.50;;
10410;SDS011;5251;52.112;8.606;2024-01-11T02:57:22;39.78;;;22.08;;
10410;SDS011;5251;52.112;8.606;2024-01-11T02:59:49;37.03;;;20.65;;
10410;SDS011;5251;52.112;8.606;2024-01-11T03:02:15;46.95;;;25.55;;
10410;SDS011;5251;52.112;8.606;2024-01-11T03:04:40;44.15;;;22.83;;
10410;SDS011;5251;52.112;8.606;2024-01-11T03:07:06;39.60;;;22.98;;
10410;SDS011;5251;52.112;8.606;2024-01-11T03:09:32;36.47;;;22.02;;
10410;SDS011;5251;52.112;8.606;2024-01-11T03:11:59;42.13;;;23.15;;
10410;SDS011;5251;52.112;8.606;2024-01-11T03:14:25;37.53;;;21.40;;
10410;SDS011;5251;52.112;8.606;2024-01-11T03:16:50;38.17;;;21.73;;
10410;SDS011;5251;52.112;8.606;2024-01-11T03:19:16;39.40;;;21.30;;
10410;SDS011;5251;52.112;8.606;2024-01-11T03:21:43;43.78;;;23.10;;
10410;SDS011;5251;52.112;8.606;2024-01-11T03:24:09;34.97;;;20.73;;
10410;SDS011;5251;52.112;8.606;2024-01-11T03:26:34;37.17;;;20.15;;
10410;SDS011;5251;52.112;8.606;2024-01-11T03:29:00;33.00;;;19.35;;
10410;SDS011;5251;52.112;8.606;2024-01-11T03:31:25;35.25;;;20.63;;
10410;SDS011;5251;52.112;8.606;2024-01-11T03:33:51;34.67;;;19.48;;
10410;SDS011;5251;52.112;8.606;2024-01-11T03:36:17;33.20;;;19.88;;
10410;SDS011;5251;52.112;8.606;2024-01-11T03:38:42;32.70;;;19.73;;
10410;SDS011;5251;52.112;8.606;2024-01-11T03:41:08;32.10;;;19.13;;
10410;SDS011;5251;52.112;8.606;2024-01-11T03:43:35;33.30;;;19.20;;
10410;SDS011;5251;52.112;8.606;2024-01-11T03:46:03;39.45;;;21.00;;
10410;SDS011;5251;52.112;8.606;2024-01-11T03:48:29;35.20;;;20.83;;
10410;SDS011;5251;52.112;8.606;2024-01-11T03:50:55;33.00;;;19.17;;
10410;SDS011;5251;52.112;8.606;2024-01-11T03:53:21;35.17;;;20.65;;
10410;SDS011;5251;52.112;8.606;2024-01-11T03:55:47;32.80;;;19.38;;
10410;SDS011;5251;52.112;8.606;2024-01-11T03:58:12;36.45;;;20.17;;
10410;SDS011;5251;52.112;8.606;2024-01-11T04:00:38;36.95;;;21.45;;
10410;SDS011;5251;52.112;8.606;2024-01-11T04:03:03;34.75;;;20.05;;
10410;SDS011;5251;52.112;8.606;2024-01-11T04:05:31;37.88;;;20.83;;
10410;SDS011;5251;52.112;8.606;2024-01-11T04:07:57;32.28;;;18.92;;
10410;SDS011;5251;52.112;8.606;2024-01-11T04:10:22;34.33;;;19.67;;
10410;SDS011;5251;52.112;8.606;2024-01-11T04:12:48;35.25;;;19.65;;
10410;SDS011;5251;52.112;8.606;2024-01-11T04:15:13;41.45;;;22.92;;
10410;SDS011;5251;52.112;8.606;2024-01-11T04:17:39;36.58;;;19.73;;
10410;SDS011;5251;52.112;8.606;2024-01-11T04:20:06;33.78;;;19.17;;
10410;SDS011;5251;52.112;8.606;2024-01-11T04:22:33;32.80;;;18.67;;
10410;SDS011;5251;52.112;8.606;2024-01-11T04:24:59;32.22;;;18.77;;
10410;SDS011;5251;52.112;8.606;2024-01-11T04:27:25;33.58;;;18.45;;
10410;SDS011;5251;52.112;8.606;2024-01-11T04:29:51;33.95;;;19.05;;
10410;SDS011;5251;52.112;8.606;2024-01-11T04:32:16;31.88;;;18.80;;
10410;SDS011;5251;52.112;8.606;2024-01-11T04:34:42;31.00;;;18.13;;
10410;SDS011;5251;52.112;8.606;2024-01-11T04:37:08;32.05;;;18.90;;
10410;SDS011;5251;52.112;8.606;2024-01-11T04:39:33;31.20;;;18.20;;
10410;SDS011;5251;52.112;8.606;2024-01-11T04:41:59;32.20;;;18.80;;
10410;SDS011;5251;52.112;8.606;2024-01-11T04:44:25;30.63;;;18.80;;
10410;SDS011;5251;52.112;8.606;2024-01-11T04:46:51;29.75;;;17.45;;
10410;SDS011;5251;52.112;8.606;2024-01-11T04:49:17;33.58;;;19.08;;
10410;SDS011;5251;52.112;8.606;2024-01-11T04:51:42;29.83;;;18.30;;
10410;SDS011;5251;52.112;8.606;2024-01-11T04:54:08;33.70;;;19.20;;
10410;SDS011;5251;52.112;8.606;2024-01-11T04:56:33;34.72;;;19.20;;
10410;SDS011;5251;52.112;8.606;2024-01-11T04:58:59;32.03;;;19.63;;
10410;SDS011;5251;52.112;8.606;2024-01-11T05:01:25;29.40;;;18.35;;
10410;SDS011;5251;52.112;8.606;2024-01-11T05:03:51;32.65;;;18.80;;
10410;SDS011;5251;52.112;8.606;2024-01-11T05:06:20;33.83;;;18.63;;
10410;SDS011;5251;52.112;8.606;2024-01-11T05:08:48;32.75;;;17.60;;
10410;SDS011;5251;52.112;8.606;2024-01-11T05:11:15;32.08;;;18.83;;
10410;SDS011;5251;52.112;8.606;2024-01-11T05:13:50;31.23;;;19.00;;
10410;SDS011;5251;52.112;8.606;2024-01-11T05:16:20;30.73;;;18.25;;
10410;SDS011;5251;52.112;8.606;2024-01-11T05:18:47;30.33;;;18.48;;
10410;SDS011;5251;52.112;8.606;2024-01-11T05:21:13;36.15;;;20.17;;
10410;SDS011;5251;52.112;8.606;2024-01-11T05:23:39;31.27;;;18.55;;
10410;SDS011;5251;52.112;8.606;2024-01-11T05:26:06;30.45;;;19.10;;
10410;SDS011;5251;52.112;8.606;2024-01-11T05:28:33;34.33;;;19.75;;
10410;SDS011;5251;52.112;8.606;2024-01-11T05:30:58;34.50;;;20.23;;
10410;SDS011;5251;52.112;8.606;2024-01-11T05:33:24;35.40;;;19.08;;
10410;SDS011;5251;52.112;8.606;2024-01-11T05:35:49;33.03;;;19.35;;
10410;SDS011;5251;52.112;8.606;2024-01-11T05:38:15;32.08;;;19.17;;
10410;SDS011;5251;52.112;8.606;2024-01-11T05:40:41;35.28;;;20.05;;
10410;SDS011;5251;52.112;8.606;2024-01-11T05:43:06;37.60;;;20.40;;
10410;SDS011;5251;52.112;8.606;2024-01-11T05:45:32;36.75;;;20.75;;
10410;SDS011;5251;52.112;8.606;2024-01-11T05:47:59;38.53;;;21.23;;
10410;SDS011;5251;52.112;8.606;2024-01-11T05:50:24;39.38;;;22.52;;
10410;SDS011;5251;52.112;8.606;2024-01-11T05:52:51;39.97;;;22.02;;
10410;SDS011;5251;52.112;8.606;2024-01-11T05:55:19;36.90;;;20.48;;
10410;SDS011;5251;52.112;8.606;2024-01-11T05:57:44;37.63;;;19.95;;
10410;SDS011;5251;52.112;8.606;2024-01-11T06:00:10;34.88;;;19.88;;
10410;SDS011;5251;52.112;8.606;2024-01-11T06:02:36;36.97;;;21.10;;
10410;SDS011;5251;52.112;8.606;2024-01-11T06:05:02;33.33;;;19.33;;
10410;SDS011;5251;52.112;8.606;2024-01-11T06:07:28;32.10;;;19.27;;
10410;SDS011;5251;52.112;8.606;2024-01-11T06:09:54;32.97;;;18.98;;
10410;SDS011;5251;52.112;8.606;2024-01-11T06:12:20;31.00;;;18.15;;
10410;SDS011;5251;52.112;8.606;2024-01-11T06:14:45;32.15;;;19.60;;
10410;SDS011;5251;52.112;8.606;2024-01-11T06:17:11;32.53;;;18.17;;
10410;SDS011;5251;52.112;8.606;2024-01-11T06:19:37;30.45;;;17.98;;
10410;SDS011;5251;52.112;8.606;2024-01-11T06:22:03;31.03;;;18.37;;
10410;SDS011;5251;52.112;8.606;2024-01-11T06:24:30;31.60;;;18.00;;
10410;SDS011;5251;52.112;8.606;2024-01-11T06:26:56;33.45;;;19.15;;
10410;SDS011;5251;52.112;8.606;2024-01-11T06:29:22;31.13;;;17.92;;
10410;SDS011;5251;52.112;8.606;2024-01-11T06:31:47;32.20;;;18.30;;
10410;SDS011;5251;52.112;8.606;2024-01-11T06:34:13;31.48;;;18.05;;
10410;SDS011;5251;52.112;8.606;2024-01-11T06:36:38;30.23;;;17.73;;
10410;SDS011;5251;52.112;8.606;2024-01-11T06:39:04;29.00;;;17.85;;
10410;SDS011;5251;52.112;8.606;2024-01-11T06:41:30;29.45;;;17.73;;
10410;SDS011;5251;52.112;8.606;2024-01-11T06:43:55;31.40;;;18.05;;
10410;SDS011;5251;52.112;8.606;2024-01-11T06:46:21;29.45;;;18.27;;
10410;SDS011;5251;52.112;8.606;2024-01-11T06:48:48;29.25;;;17.27;;
10410;SDS011;5251;52.112;8.606;2024-01-11T06:51:20;32.97;;;18.20;;
10410;SDS011;5251;52.112;8.606;2024-01-11T06:53:47;28.20;;;17.13;;
10410;SDS011;5251;52.112;8.606;2024-01-11T06:56:15;30.83;;;16.95;;
10410;SDS011;5251;52.112;8.606;2024-01-11T06:58:43;28.90;;;17.10;;
10410;SDS011;5251;52.112;8.606;2024-01-11T07:01:09;30.33;;;16.63;;
10410;SDS011;5251;52.112;8.606;2024-01-11T07:03:35;27.23;;;17.13;;
10410;SDS011;5251;52.112;8.606;2024-01-11T07:06:00;28.02;;;16.75;;
10410;SDS011;5251;52.112;8.606;2024-01-11T07:08:27;30.40;;;17.50;;
10410;SDS011;5251;52.112;8.606;2024-01-11T07:10:53;30.15;;;17.42;;
10410;SDS011;5251;52.112;8.606;2024-01-11T07:13:19;28.08;;;16.92;;
10410;SDS011;5251;52.112;8.606;2024-01-11T07:15:44;28.70;;;17.52;;
10410;SDS011;5251;52.112;8.606;2024-01-11T07:18:10;33.05;;;18.63;;
10410;SDS011;5251;52.112;8.606;2024-01-11T07:20:36;31.75;;;19.23;;
10410;SDS011;5251;52.112;8.606;2024-01-11T07:23:02;35.67;;;20.05;;
10410;SDS011;5251;52.112;8.606;2024-01-11T07:25:28;30.60;;;17.90;;
10410;SDS011;5251;52.112;8.606;2024-01-11T07:27:54;32.70;;;18.23;;
10410;SDS011;5251;52.112;8.606;2024-01-11T07:30:19;29.85;;;17.92;;
10410;SDS011;5251;52.112;8.606;2024-01-11T07:32:45;27.38;;;16.98;;
10410;SDS011;5251;52.112;8.606;2024-01-11T07:35:10;29.17;;;16.70;;
10410;SDS011;5251;52.112;8.606;2024-01-11T07:37:37;27.67;;;17.38;;
10410;SDS011;5251;52.112;8.606;2024-01-11T07:40:03;28.58;;;17.38;;
10410;SDS011;5251;52.112;8.606;2024-01-11T07:42:35;31.42;;;18.70;;
10410;SDS011;5251;52.112;8.606;2024-01-11T07:45:00;28.70;;;17.00;;
10410;SDS011;5251;52.112;8.606;2024-01-11T07:47:26;28.90;;;17.15;;
10410;SDS011;5251;52.112;8.606;2024-01-11T07:49:52;27.08;;;15.90;;
10410;SDS011;5251;52.112;8.606;2024-01-11T07:52:17;28.20;;;16.25;;
10410;SDS011;5251;52.112;8.606;2024-01-11T07:54:43;28.30;;;16.75;;
10410;SDS011;5251;52.112;8.606;2024-01-11T07:57:09;25.60;;;15.80;;
10410;SDS011;5251;52.112;8.606;2024-01-11T07:59:34;28.05;;;16.70;;
10410;SDS011;5251;52.112;8.606;2024-01-11T08:02:03;29.20;;;16.70;;
10410;SDS011;5251;52.112;8.606;2024-01-11T08:04:29;25.80;;;16.88;;
10410;SDS011;5251;52.112;8.606;2024-01-11T08:06:54;26.92;;;16.73;;
10410;SDS011;5251;52.112;8.606;2024-01-11T08:09:20;30.08;;;16.75;;
10410;SDS011;5251;52.112;8.606;2024-01-11T08:11:47;29.92;;;17.98;;
10410;SDS011;5251;52.112;8.606;2024-01-11T08:14:12;32.25;;;18.35;;
10410;SDS011;5251;52.112;8.606;2024-01-11T08:16:39;30.98;;;18.40;;
10410;SDS011;5251;52.112;8.606;2024-01-11T08:19:04;34.80;;;18.67;;
10410;SDS011;5251;52.112;8.606;2024-01-11T08:21:30;27.75;;;17.48;;
10410;SDS011;5251;52.112;8.606;2024-01-11T08:23:56;32.42;;;18.63;;
10410;SDS011;5251;52.112;8.606;2024-01-11T08:26:22;28.42;;;17.38;;
10410;SDS011;5251;52.112;8.606;2024-01-11T08:28:47;31.58;;;18.77;;
10410;SDS011;5251;52.112;8.606;2024-01-11T08:31:13;31.88;;;18.20;;
10410;SDS011;5251;52.112;8.606;2024-01-11T08:33:39;33.05;;;18.67;;
10410;SDS011;5251;52.112;8.606;2024-01-11T08:36:05;29.65;;;17.85;;
10410;SDS011;5251;52.112;8.606;2024-01-11T08:38:31;30.70;;;17.85;;
10410;SDS011;5251;52.112;8.606;2024-01-11T08:40:57;31.77;;;17.55;;
10410;SDS011;5251;52.112;8.606;2024-01-11T08:43:24;31.38;;;18.13;;
10410;SDS011;5251;52.112;8.606;2024-01-11T08:45:50;27.73;;;16.65;;
10410;SDS011;5251;52.112;8.606;2024-01-11T08:48:16;32.13;;;18.67;;
10410;SDS011;5251;52.112;8.606;2024-01-11T08:50:42;30.92;;;17.73;;
10410;SDS011;5251;52.112;8.606;2024-01-11T08:53:08;29.17;;;16.50;;
10410;SDS011;5251;52.112;8.606;2024-01-11T08:55:33;29.55;;;18.08;;
10410;SDS011;5251;52.112;8.606;2024-01-11T08:57:59;28.70;;;16.27;;
10410;SDS011;5251;52.112;8.606;2024-01-11T09:00:26;26.02;;;16.05;;
10410;SDS011;5251;52.112;8.606;2024-01-11T09:02:51;27.17;;;15.60;;
10410;SDS011;5251;52.112;8.606;2024-01-11T09:05:17;27.30;;;16.60;;
10410;SDS011;5251;52.112;8.606;2024-01-11T09:07:44;29.25;;;16.67;;
10410;SDS011;5251;52.112;8.606;2024-01-11T09:10:10;27.27;;;15.88;;
10410;SDS011;5251;52.112;8.606;2024-01-11T09:12:38;27.20;;;16.23;;
10410;SDS011;5251;52.112;8.606;2024-01-11T09:15:04;31.00;;;17.27;;
10410;SDS011;5251;52.112;8.606;2024-01-11T09:17:30;24.92;;;15.60;;
10410;SDS011;5251;52.112;8.606;2024-01-11T09:19:56;28.20;;;16.92;;
10410;SDS011;5251;52.112;8.606;2024-01-11T09:22:21;29.70;;;17.45;;
10410;SDS011;5251;52.112;8.606;2024-01-11T09:24:47;28.20;;;17.17;;
10410;SDS011;5251;52.112;8.606;2024-01-11T09:27:13;30.17;;;16.38;;
10410;SDS011;5251;52.112;8.606;2024-01-11T09:29:42;27.80;;;17.20;;
10410;SDS011;5251;52.112;8.606;2024-01-11T09:32:09;26.65;;;16.83;;
10410;SDS011;5251;52.112;8.606;2024-01-11T09:34:35;29.52;;;18.45;;
10410;SDS011;5251;52.112;8.606;2024-01-11T09:37:00;31.88;;;18.95;;
10410;SDS011;5251;52.112;8.606;2024-01-11T09:39:26;32.03;;;19.45;;
10410;SDS011;5251;52.112;8.606;2024-01-11T09:41:57;32.63;;;18.75;;
10410;SDS011;5251;52.112;8.606;2024-01-11T09:44:27;30.77;;;19.08;;
10410;SDS011;5251;52.112;8.606;2024-01-11T09:46:53;34.63;;;18.80;;
10410;SDS011;5251;52.112;8.606;2024-01-11T09:49:19;31.02;;;20.42;;
10410;SDS011;5251;52.112;8.606;2024-01-11T09:51:47;33.13;;;19.50;;
10410;SDS011;5251;52.112;8.606;2024-01-11T09:54:14;30.30;;;18.83;;
10410;SDS011;5251;52.112;8.606;2024-01-11T09:56:41;33.65;;;19.00;;
10410;SDS011;5251;52.112;8.606;2024-01-11T09:59:08;30.90;;;18.80;;
10410;SDS011;5251;52.112;8.606;2024-01-11T10:01:34;29.52;;;18.52;;
10410;SDS011;5251;52.112;8.606;2024-01-11T10:04:00;29.98;;;18.13;;
10410;SDS011;5251;52.112;8.606;2024-01-11T10:06:28;28.20;;;17.83;;
10410;SDS011;5251;52.112;8.606;2024-01-11T10:08:59;28.67;;;16.38;;
10410;SDS011;5251;52.112;8.606;2024-01-11T10:11:24;27.55;;;17.52;;
10410;SDS011;5251;52.112;8.606;2024-01-11T10:13:55;31.67;;;18.27;;
10410;SDS011;5251;52.112;8.606;2024-01-11T10:16:22;27.88;;;17.73;;
10410;SDS011;5251;52.112;8.606;2024-01-11T10:18:49;28.88;;;17.10;;
10410;SDS011;5251;52.112;8.606;2024-01-11T10:21:18;29.73;;;17.00;;
10410;SDS011;5251;52.112;8.606;2024-01-11T10:23:44;27.52;;;17.23;;
10410;SDS011;5251;52.112;8.606;2024-01-11T10:26:09;25.60;;;16.63;;
10410;SDS011;5251;52.112;8.606;2024-01-11T10:28:35;27.05;;;16.88;;
10410;SDS011;5251;52.112;8.606;2024-01-11T10:31:03;28.17;;;18.67;;
10410;SDS011;5251;52.112;8.606;2024-01-11T10:33:32;26.75;;;17.23;;
10410;SDS011;5251;52.112;8.606;2024-01-11T10:35:58;26.95;;;17.65;;
10410;SDS011;5251;52.112;8.606;2024-01-11T10:38:25;24.90;;;16.08;;
10410;SDS011;5251;52.112;8.606;2024-01-11T10:40:51;25.30;;;15.60;;
10410;SDS011;5251;52.112;8.606;2024-01-11T10:43:21;26.42;;;15.63;;
10410;SDS011;5251;52.112;8.606;2024-01-11T10:45:48;27.65;;;16.60;;
10410;SDS011;5251;52.112;8.606;2024-01-11T10:48:15;22.98;;;14.38;;
10410;SDS011;5251;52.112;8.606;2024-01-11T10:50:44;24.13;;;14.98;;
10410;SDS011;5251;52.112;8.606;2024-01-11T10:56:00;23.15;;;14.30;;
10410;SDS011;5251;52.112;8.606;2024-01-11T10:58:28;22.20;;;14.52;;
10410;SDS011;5251;52.112;8.606;2024-01-11T11:00:55;21.15;;;14.10;;
10410;SDS011;5251;52.112;8.606;2024-01-11T11:03:25;21.27;;;14.30;;
10410;SDS011;5251;52.112;8.606;2024-01-11T11:05:53;25.40;;;14.90;;
10410;SDS011;5251;52.112;8.606;2024-01-11T11:08:22;21.85;;;14.23;;
10410;SDS011;5251;52.112;8.606;2024-01-11T11:10:50;23.77;;;14.23;;
10410;SDS011;5251;52.112;8.606;2024-01-11T11:13:21;23.27;;;14.30;;
10410;SDS011;5251;52.112;8.606;2024-01-11T11:15:47;23.55;;;14.68;;
10410;SDS011;5251;52.112;8.606;2024-01-11T11:18:16;23.15;;;14.23;;
10410;SDS011;5251;52.112;8.606;2024-01-11T11:20:43;24.98;;;15.50;;
10410;SDS011;5251;52.112;8.606;2024-01-11T11:23:09;24.05;;;14.52;;
10410;SDS011;5251;52.112;8.606;2024-01-11T11:25:37;25.17;;;14.65;;
10410;SDS011;5251;52.112;8.606;2024-01-11T11:28:06;23.70;;;14.18;;
10410;SDS011;5251;52.112;8.606;2024-01-11T11:30:38;26.23;;;15.10;;
10410;SDS011;5251;52.112;8.606;2024-01-11T11:33:15;26.10;;;15.23;;
10410;SDS011;5251;52.112;8.606;2024-01-11T11:35:42;24.88;;;15.50;;
10410;SDS011;5251;52.112;8.606;2024-01-11T11:38:09;23.48;;;14.02;;
10410;SDS011;5251;52.112;8.606;2024-01-11T11:40:46;25.80;;;14.20;;
10410;SDS011;5251;52.112;8.606;2024-01-11T11:43:15;28.58;;;16.85;;
10410;SDS011;5251;52.112;8.606;2024-01-11T11:45:42;23.70;;;14.68;;
10410;SDS011;5251;52.112;8.606;2024-01-11T11:51:37;23.85;;;14.32;;
10410;SDS011;5251;52.112;8.606;2024-01-11T11:53:57;23.38;;;14.57;;
10410;SDS011;5251;52.112;8.606;2024-01-11T11:56:23;25.25;;;14.73;;
10410;SDS011;5251;52.112;8.606;2024-01-11T11:58:49;25.23;;;14.35;;
10410;SDS011;5251;52.112;8.606;2024-01-11T12:01:17;27.50;;;15.05;;
10410;SDS011;5251;52.112;8.606;2024-01-11T12:03:44;25.38;;;15.65;;
10410;SDS011;5251;52.112;8.606;2024-01-11T12:06:14;25.60;;;15.60;;
10410;SDS011;5251;52.112;8.606;2024-01-11T12:08:42;25.90;;;14.85;;
10410;SDS011;5251;52.112;8.606;2024-01-11T12:11:08;26.77;;;15.23;;
10410;SDS011;5251;52.112;8.606;2024-01-11T12:13:34;24.70;;;15.30;;
10410;SDS011;5251;52.112;8.606;2024-01-11T12:16:01;24.95;;;15.07;;
10410;SDS011;5251;52.112;8.606;2024-01-11T12:18:26;25.63;;;15.40;;
10410;SDS011;5251;52.112;8.606;2024-01-11T12:20:52;20.85;;;13.50;;
10410;SDS011;5251;52.112;8.606;2024-01-11T12:23:18;24.08;;;14.75;;
10410;SDS011;5251;52.112;8.606;2024-01-11T12:25:44;24.77;;;14.82;;
10410;SDS011;5251;52.112;8.606;2024-01-11T12:28:10;24.77;;;15.30;;
10410;SDS011;5251;52.112;8.606;2024-01-11T12:30:36;25.98;;;14.93;;
10410;SDS011;5251;52.112;8.606;2024-01-11T12:33:03;26.17;;;15.63;;
10410;SDS011;5251;52.112;8.606;2024-01-11T12:35:30;26.60;;;14.80;;
10410;SDS011;5251;52.112;8.606;2024-01-11T12:37:59;30.40;;;16.23;;
10410;SDS011;5251;52.112;8.606;2024-01-11T12:40:26;28.63;;;15.57;;
10410;SDS011;5251;52.112;8.606;2024-01-11T12:42:53;29.25;;;17.30;;
10410;SDS011;5251;52.112;8.606;2024-01-11T12:45:22;28.85;;;16.48;;
10410;SDS011;5251;52.112;8.606;2024-01-11T12:47:48;27.02;;;15.55;;
10410;SDS011;5251;52.112;8.606;2024-01-11T12:50:13;27.85;;;15.93;;
10410;SDS011;5251;52.112;8.606;2024-01-11T12:52:39;26.83;;;15.23;;
10410;SDS011;5251;52.112;8.606;2024-01-11T12:55:07;27.33;;;15.50;;
10410;SDS011;5251;52.112;8.606;2024-01-11T12:57:42;26.02;;;15.00;;
10410;SDS011;5251;52.112;8.606;2024-01-11T13:00:09;26.63;;;15.45;;
10410;SDS011;5251;52.112;8.606;2024-01-11T13:02:35;27.58;;;14.82;;
10410;SDS011;5251;52.112;8.606;2024-01-11T13:05:01;27.90;;;16.02;;
10410;SDS011;5251;52.112;8.606;2024-01-11T13:07:28;27.88;;;15.98;;
10410;SDS011;5251;52.112;8.606;2024-01-11T13:09:54;29.13;;;16.08;;
10410;SDS011;5251;52.112;8.606;2024-01-11T13:12:19;30.13;;;16.17;;
10410;SDS011;5251;52.112;8.606;2024-01-11T13:14:46;27.55;;;15.95;;
10410;SDS011;5251;52.112;8.606;2024-01-11T13:17:12;28.60;;;16.20;;
10410;SDS011;5251;52.112;8.606;2024-01-11T13:19:38;27.60;;;16.13;;
10410;SDS011;5251;52.112;8.606;2024-01-11T13:22:04;26.75;;;16.50;;
10410;SDS011;5251;52.112;8.606;2024-01-11T13:24:29;28.42;;;16.52;;
10410;SDS011;5251;52.112;8.606;2024-01-11T13:26:55;25.60;;;16.00;;
10410;SDS011;5251;52.112;8.606;2024-01-11T13:29:21;26.17;;;16.38;;
10410;SDS011;5251;52.112;8.606;2024-01-11T13:31:47;27.90;;;16.42;;
10410;SDS011;5251;52.112;8.606;2024-01-11T13:34:12;32.28;;;17.42;;
10410;SDS011;5251;52.112;8.606;2024-01-11T13:36:38;27.83;;;16.98;;
10410;SDS011;5251;52.112;8.606;2024-01-11T13:39:04;27.60;;;16.73;;
10410;SDS011;5251;52.112;8.606;2024-01-11T13:41:33;29.63;;;17.10;;
10410;SDS011;5251;52.112;8.606;2024-01-11T13:43:58;23.63;;;15.32;;
10410;SDS011;5251;52.112;8.606;2024-01-11T13:46:24;29.73;;;16.45;;
10410;SDS011;5251;52.112;8.606;2024-01-11T13:48:49;26.63;;;16.42;;
10410;SDS011;5251;52.112;8.606;2024-01-11T13:51:15;26.88;;;15.48;;
10410;SDS011;5251;52.112;8.606;2024-01-11T13:53:41;27.92;;;16.83;;
10410;SDS011;5251;52.112;8.606;2024-01-11T13:56:06;27.17;;;15.60;;
10410;SDS011;5251;52.112;8.606;2024-01-11T13:58:32;26.35;;;15.38;;
10410;SDS011;5251;52.112;8.606;2024-01-11T14:00:58;25.05;;;15.35;;
10410;SDS011;5251;52.112;8.606;2024-01-11T14:03:24;29.00;;;14.77;;
10410;SDS011;5251;52.112;8.606;2024-01-11T14:05:50;27.20;;;14.70;;
10410;SDS011;5251;52.112;8.606;2024-01-11T14:08:15;26.30;;;14.50;;
10410;SDS011;5251;52.112;8.606;2024-01-11T14:10:41;24.40;;;13.98;;
10410;SDS011;5251;52.112;8.606;2024-01-11T14:13:06;29.55;;;15.45;;
10410;SDS011;5251;52.112;8.606;2024-01-11T14:15:32;27.80;;;14.20;;
10410;SDS011;5251;52.112;8.606;2024-01-11T14:17:58;30.13;;;15.35;;
10410;SDS011;5251;52.112;8.606;2024-01-11T14:20:23;25.83;;;14.35;;
10410;SDS011;5251;52.112;8.606;2024-01-11T14:22:49;25.83;;;14.07;;
10410;SDS011;5251;52.112;8.606;2024-01-11T14:25:18;24.13;;;14.27;;
10410;SDS011;5251;52.112;8.606;2024-01-11T14:27:45;24.75;;;14.65;;
10410;SDS011;5251;52.112;8.606;2024-01-11T14:30:12;23.50;;;13.25;;
10410;SDS011;5251;52.112;8.606;2024-01-11T14:32:38;24.88;;;13.15;;
10410;SDS011;5251;52.112;8.606;2024-01-11T14:35:04;25.73;;;14.63;;